Time;durP1;ratioP1;P1;durP2;ratioP2;P2;SDS_P1;SDS_P2;PMS_P1;PMS_P2;Temp;Humidity;BMP_temperature;BMP_pressure;BME280_temperature;BME280_humidity;BME280_pressure;Samples;Min_cycle;Max_cycle;Signal;HPM_P1;HPM_P2
2022/07/05 00:00:10;;;;;;;8.32;3.25;;;;;;;22.72;45.61;99489.91;5052230;28;20025;-77
2022/07/05 00:02:36;;;;;;;6.72;2.80;;;;;;;22.93;45.49;99490.97;5049287;28;20040;-77
2022/07/05 00:05:03;;;;;;;4.70;2.88;;;;;;;22.90;45.90;99499.56;5049400;28;20115;-77
2022/07/05 00:07:28;;;;;;;8.30;3.60;;;;;;;22.63;46.17;99489.59;5051423;28;20028;-77
2022/07/05 00:09:57;;;;;;;4.93;2.80;;;;;;;22.32;47.51;99492.16;5052700;28;20040;-77
2022/07/05 00:12:27;;;;;;;4.63;2.80;;;;;;;21.91;49.09;99502.13;5052541;28;20017;-77
2022/07/05 00:14:53;;;;;;;8.52;7.63;;;;;;;21.42;50.37;99493.28;5051777;28;20459;-77
2022/07/05 00:17:19;;;;;;;5.10;4.05;;;;;;;20.94;51.81;99503.88;5051487;28;20029;-77
2022/07/05 00:19:45;;;;;;;9.88;3.85;;;;;;;21.16;51.06;99501.00;5050255;28;20506;-77
2022/07/05 00:22:10;;;;;;;9.35;3.55;;;;;;;20.92;51.42;99494.13;5050873;28;20415;-77
2022/07/05 00:24:36;;;;;;;5.07;3.65;;;;;;;20.86;51.10;99488.81;5052075;28;20028;-77
2022/07/05 00:27:02;;;;;;;13.55;3.78;;;;;;;20.69;51.87;99498.13;5051897;28;20053;-77
2022/07/05 00:29:28;;;;;;;7.00;3.50;;;;;;;20.05;52.88;99489.03;5050691;28;20052;-77
2022/07/05 00:31:54;;;;;;;17.92;4.15;;;;;;;19.91;53.63;99478.41;5049500;28;20061;-77
2022/07/05 00:34:19;;;;;;;9.88;3.95;;;;;;;20.11;53.15;99480.94;5051374;28;20525;-77
2022/07/05 00:36:45;;;;;;;5.85;3.33;;;;;;;20.37;52.23;99481.81;5051862;28;20036;-77
2022/07/05 00:39:11;;;;;;;7.40;3.20;;;;;;;20.27;52.64;99470.06;5049914;28;20021;-77
2022/07/05 00:41:37;;;;;;;8.95;3.47;;;;;;;20.37;52.31;99471.28;5043797;28;20025;-77
2022/07/05 00:44:05;;;;;;;7.97;4.13;;;;;;;19.86;53.15;99470.28;5047111;28;20053;-77
2022/07/05 00:46:31;;;;;;;6.10;3.65;;;;;;;19.69;53.74;99472.63;5047096;28;20025;-77
2022/07/05 00:48:58;;;;;;;9.02;4.05;;;;;;;19.41;54.63;99457.06;5042014;28;20526;-77
2022/07/05 00:51:25;;;;;;;4.30;3.80;;;;;;;19.29;55.50;99471.56;5051656;28;20134;-76
2022/07/05 00:53:50;;;;;;;6.75;3.92;;;;;;;19.18;55.61;99457.34;5050648;28;20483;-77
2022/07/05 00:56:19;;;;;;;7.50;4.82;;;;;;;18.89;56.77;99459.94;5050637;28;20063;-77
2022/07/05 00:58:45;;;;;;;6.88;5.00;;;;;;;18.75;57.63;99475.56;5051428;28;20098;-76
2022/07/05 01:01:12;;;;;;;9.07;5.13;;;;;;;18.50;58.83;99459.16;5050549;28;20036;-76
2022/07/05 01:03:38;;;;;;;10.32;4.80;;;;;;;18.70;58.48;99461.78;5050687;28;20060;-76
2022/07/05 01:06:06;;;;;;;8.27;4.95;;;;;;;18.79;58.54;99455.78;5051978;28;20024;-77
2022/07/05 01:08:35;;;;;;;7.88;6.07;;;;;;;18.80;58.83;99448.91;5051975;28;20502;-76
2022/07/05 01:11:01;;;;;;;12.77;5.90;;;;;;;18.71;58.81;99446.41;5050456;28;20056;-76
2022/07/05 01:13:27;;;;;;;9.32;5.22;;;;;;;18.50;59.24;99438.53;5051851;28;20029;-76
2022/07/05 01:15:55;;;;;;;9.65;5.88;;;;;;;18.35;59.80;99446.06;5050861;28;20029;-76
2022/07/05 01:18:21;;;;;;;8.68;5.78;;;;;;;18.58;59.45;99437.41;5050429;28;20033;-77
2022/07/05 01:20:50;;;;;;;8.40;4.70;;;;;;;18.52;59.25;99433.28;5051541;28;20427;-77
2022/07/05 01:23:19;;;;;;;6.90;4.90;;;;;;;18.48;59.37;99424.75;5051645;28;20036;-76
2022/07/05 01:25:47;;;;;;;10.35;5.15;;;;;;;18.54;59.54;99433.72;5051428;28;20029;-76
2022/07/05 01:28:13;;;;;;;6.15;4.65;;;;;;;18.48;59.55;99436.09;5051472;28;20426;-76
2022/07/05 01:30:40;;;;;;;9.05;5.28;;;;;;;18.21;60.01;99426.91;5044598;28;20436;-77
2022/07/05 01:33:07;;;;;;;7.75;4.90;;;;;;;18.09;60.53;99442.16;5048446;28;20029;-76
2022/07/05 01:35:33;;;;;;;9.65;5.30;;;;;;;18.03;61.06;99438.88;5049231;28;20037;-76
2022/07/05 01:37:59;;;;;;;6.63;4.85;;;;;;;18.01;60.93;99427.09;5050454;28;20021;-76
2022/07/05 01:40:24;;;;;;;7.68;5.25;;;;;;;18.08;60.89;99438.50;5049932;28;20029;-76
2022/07/05 01:42:50;;;;;;;12.60;5.35;;;;;;;18.03;61.20;99444.53;5051331;28;20475;-76
2022/07/05 01:45:38;;;;;;;6.07;5.47;;;;;;;17.91;62.00;99445.56;5051223;28;20025;-76
2022/07/05 01:48:06;;;;;;;10.10;5.25;;;;;;;17.86;62.19;99439.41;5049562;28;20025;-76
2022/07/05 01:50:36;;;;;;;5.75;5.15;;;;;;;17.80;62.65;99442.59;5031274;28;20022;-76
2022/07/05 01:53:03;;;;;;;7.60;5.53;;;;;;;17.81;62.36;99447.06;5032627;28;20120;-76
2022/07/05 01:55:29;;;;;;;10.02;5.80;;;;;;;17.55;63.37;99453.59;5050097;28;20411;-76
2022/07/05 01:57:54;;;;;;;7.97;5.07;;;;;;;17.60;63.86;99466.56;5051127;28;20029;-77
2022/07/05 02:00:20;;;;;;;6.68;5.85;;;;;;;17.46;63.78;99476.50;5048608;28;20425;-76
2022/07/05 02:02:47;;;;;;;10.65;5.68;;;;;;;17.52;64.08;99465.66;5050559;28;20037;-76
2022/07/05 02:05:12;;;;;;;9.52;5.57;;;;;;;17.81;63.33;99466.88;5050976;28;20104;-76
2022/07/05 02:07:47;;;;;;;10.73;5.40;;;;;;;17.96;62.83;99467.03;5048710;28;20103;-76
2022/07/05 02:10:13;;;;;;;14.20;6.25;;;;;;;17.74;63.01;99466.78;5048863;28;20033;-77
2022/07/05 02:12:38;;;;;;;10.32;5.95;;;;;;;17.58;63.49;99471.81;5051088;28;20021;-76
2022/07/05 02:15:04;;;;;;;10.02;5.70;;;;;;;17.58;63.87;99481.13;5050903;28;20534;-76
2022/07/05 02:17:29;;;;;;;13.05;6.03;;;;;;;17.58;63.87;99463.31;5050323;28;20033;-76
2022/07/05 02:19:55;;;;;;;7.80;5.05;;;;;;;17.62;63.94;99469.84;5049738;28;20419;-76
2022/07/05 02:22:20;;;;;;;10.15;5.38;;;;;;;17.76;63.34;99470.03;5047761;28;20028;-77
2022/07/05 02:24:46;;;;;;;10.73;5.60;;;;;;;18.13;62.02;99476.16;5042388;28;20029;-77
2022/07/05 02:27:11;;;;;;;12.40;5.90;;;;;;;18.18;61.84;99470.16;5052412;28;20048;-76
2022/07/05 02:29:37;;;;;;;18.17;5.45;;;;;;;18.24;61.55;99475.06;5053041;28;20503;-76
2022/07/05 02:32:06;;;;;;;8.02;4.95;;;;;;;18.27;61.57;99472.66;5052978;28;20380;-76
2022/07/05 02:34:31;;;;;;;13.95;7.00;;;;;;;18.42;61.24;99476.47;5053280;28;20621;-77
2022/07/05 02:36:57;;;;;;;13.48;5.38;;;;;;;18.40;61.40;99473.22;5052953;28;20119;-77
2022/07/05 02:39:22;;;;;;;18.35;5.40;;;;;;;18.46;61.08;99477.31;5053471;28;20159;-76
2022/07/05 02:41:48;;;;;;;10.35;4.95;;;;;;;18.60;60.60;99471.00;5049813;28;20036;-76
2022/07/05 02:44:13;;;;;;;14.63;5.38;;;;;;;18.75;59.88;99475.56;5052303;28;20020;-77
2022/07/05 02:46:38;;;;;;;9.85;5.35;;;;;;;18.83;59.74;99482.16;5054336;28;20033;-76
2022/07/05 02:49:04;;;;;;;9.70;5.40;;;;;;;19.07;59.01;99477.09;5053654;28;20487;-77
2022/07/05 02:51:30;;;;;;;12.63;5.57;;;;;;;19.07;58.70;99463.72;5054347;28;20103;-76
2022/07/05 02:53:55;;;;;;;9.77;5.18;;;;;;;18.91;59.35;99471.69;5051779;28;20806;-76
2022/07/05 02:56:21;;;;;;;14.00;5.63;;;;;;;18.99;59.23;99464.84;5053094;28;20028;-76
2022/07/05 02:58:46;;;;;;;12.68;5.35;;;;;;;18.95;59.25;99464.00;5054426;28;20035;-76
2022/07/05 03:01:12;;;;;;;10.07;5.43;;;;;;;19.04;59.23;99475.03;5054416;28;20035;-76
2022/07/05 03:03:37;;;;;;;15.25;4.78;;;;;;;18.92;59.45;99461.97;5052981;28;20032;-76
2022/07/05 03:06:03;;;;;;;15.45;5.18;;;;;;;18.77;59.68;99480.84;5054140;28;20079;-76
2022/07/05 03:08:28;;;;;;;12.25;5.68;;;;;;;18.33;60.87;99474.75;5046027;28;20025;-76
2022/07/05 03:10:54;;;;;;;10.98;6.30;;;;;;;18.20;61.34;99476.22;5053380;28;20021;-76
2022/07/05 03:13:19;;;;;;;5.82;4.90;;;;;;;18.28;60.87;99482.78;5052435;28;20029;-76
2022/07/05 03:15:45;;;;;;;7.25;4.70;;;;;;;18.20;61.22;99485.56;5054458;28;20033;-76
2022/07/05 03:18:10;;;;;;;16.50;6.40;;;;;;;17.96;62.04;99487.66;5053418;28;20060;-76
2022/07/05 03:20:36;;;;;;;8.80;5.43;;;;;;;17.86;62.40;99468.53;5051793;28;20411;-77
2022/07/05 03:23:01;;;;;;;15.55;5.25;;;;;;;17.89;62.50;99473.41;5051110;28;20020;-76
2022/07/05 03:25:27;;;;;;;12.43;5.68;;;;;;;17.52;63.94;99472.16;5051727;28;20502;-76
2022/07/05 03:27:52;;;;;;;10.05;5.60;;;;;;;17.49;64.28;99472.88;5048388;28;20142;-77
2022/07/05 03:30:18;;;;;;;18.80;6.25;;;;;;;17.46;64.61;99470.03;5039349;28;20036;-78
2022/07/05 03:32:43;;;;;;;12.43;6.47;;;;;;;17.21;66.08;99474.09;5050934;28;20025;-77
2022/07/05 03:35:09;;;;;;;10.63;6.80;;;;;;;17.04;67.09;99469.00;5050597;28;20025;-77
2022/07/05 03:37:35;;;;;;;14.75;6.75;;;;;;;17.20;66.78;99471.69;5047101;28;20029;-78
2022/07/05 03:40:01;;;;;;;11.32;6.13;;;;;;;17.22;66.68;99464.44;5052408;28;20077;-77
2022/07/05 03:42:26;;;;;;;12.98;6.20;;;;;;;17.33;66.30;99469.44;5052431;28;20445;-75
2022/07/05 03:44:52;;;;;;;11.85;6.47;;;;;;;17.43;65.77;99465.13;5051721;28;20025;-74
2022/07/05 03:47:17;;;;;;;15.55;6.55;;;;;;;17.46;65.89;99468.00;5052059;28;20078;-75
2022/07/05 03:49:43;;;;;;;13.98;6.90;;;;;;;17.50;66.00;99466.06;5051980;28;20024;-75
2022/07/05 03:52:08;;;;;;;18.92;6.30;;;;;;;17.77;65.33;99474.50;5052001;28;20044;-74
2022/07/05 03:54:34;;;;;;;20.13;6.30;;;;;;;17.87;64.79;99455.22;5052692;28;20052;-74
2022/07/05 03:56:59;;;;;;;11.35;6.18;;;;;;;18.02;64.63;99462.69;5053187;28;20048;-75
2022/07/05 03:59:25;;;;;;;12.85;6.22;;;;;;;18.00;64.36;99467.91;5044640;28;20052;-75
2022/07/05 04:01:50;;;;;;;6.90;5.90;;;;;;;17.76;65.22;99472.88;5053028;28;20082;-75
2022/07/05 04:04:16;;;;;;;11.30;5.70;;;;;;;17.80;65.05;99462.41;5050736;28;20067;-75
2022/07/05 04:06:41;;;;;;;9.70;5.68;;;;;;;18.00;64.90;99465.09;5053039;28;20112;-75
2022/07/05 04:09:07;;;;;;;12.15;6.07;;;;;;;18.03;64.40;99467.16;5053195;28;20028;-79
2022/07/05 04:11:32;;;;;;;18.77;7.22;;;;;;;18.13;64.85;99464.84;5050854;28;20090;-79
2022/07/05 04:13:58;;;;;;;10.55;6.22;;;;;;;18.27;64.26;99461.34;5051028;28;20411;-79
2022/07/05 04:16:23;;;;;;;15.85;6.07;;;;;;;18.46;63.71;99461.16;5050796;28;20029;-83
2022/07/05 04:18:49;;;;;;;18.95;5.53;;;;;;;18.40;63.69;99447.75;5051693;28;20021;-73
2022/07/05 04:21:14;;;;;;;7.15;5.93;;;;;;;18.49;63.38;99445.41;5052816;28;20071;-73
2022/07/05 04:23:40;;;;;;;11.50;6.03;;;;;;;18.58;63.37;99451.56;5051057;28;20085;-73
2022/07/05 04:26:05;;;;;;;11.00;5.05;;;;;;;18.56;63.11;99442.63;5049830;28;20021;-74
2022/07/05 04:28:31;;;;;;;7.03;5.55;;;;;;;18.58;62.62;99440.25;5051814;28;20045;-74
2022/07/05 04:30:57;;;;;;;8.38;5.30;;;;;;;18.69;62.97;99445.16;5052340;28;20483;-74
2022/07/05 04:33:23;;;;;;;8.25;5.80;;;;;;;18.90;62.34;99439.69;5051720;28;20031;-73
2022/07/05 04:35:48;;;;;;;8.95;5.13;;;;;;;19.02;62.01;99437.78;5050633;28;20435;-74
2022/07/05 04:38:14;;;;;;;16.83;5.88;;;;;;;19.07;61.83;99428.94;5051131;28;20033;-74
2022/07/05 04:40:40;;;;;;;17.45;6.75;;;;;;;19.24;62.01;99437.94;5049767;28;20719;-73
2022/07/05 04:43:06;;;;;;;7.32;5.50;;;;;;;19.39;61.09;99442.47;5051814;28;20024;-74
2022/07/05 04:45:32;;;;;;;5.78;5.00;;;;;;;19.53;60.03;99441.75;5052250;28;20419;-73
2022/07/05 04:47:58;;;;;;;14.40;5.28;;;;;;;19.48;59.67;99439.28;5050831;28;20115;-73
2022/07/05 04:50:23;;;;;;;9.38;4.88;;;;;;;19.62;59.32;99452.72;5050924;28;20063;-73
2022/07/05 04:52:49;;;;;;;9.50;5.32;;;;;;;19.85;59.13;99451.63;5049877;28;20408;-74
2022/07/05 04:55:14;;;;;;;8.40;4.70;;;;;;;19.95;58.02;99439.53;5050784;28;20120;-73
2022/07/05 04:57:41;;;;;;;15.88;5.53;;;;;;;20.31;57.14;99459.50;5050739;28;20070;-73
2022/07/05 05:00:12;;;;;;;16.20;4.68;;;;;;;20.32;56.17;99463.97;5051753;28;20021;-74
2022/07/05 05:02:37;;;;;;;8.93;4.68;;;;;;;20.42;56.27;99467.25;5038655;28;20049;-73
2022/07/05 05:05:03;;;;;;;6.95;4.70;;;;;;;20.25;56.64;99458.25;5066776;28;20415;-74
2022/07/05 05:07:29;;;;;;;7.68;4.80;;;;;;;20.41;56.41;99462.78;5048884;28;20029;-73
2022/07/05 05:09:55;;;;;;;9.90;5.15;;;;;;;20.66;56.39;99467.69;5049686;28;20462;-74
2022/07/05 05:12:20;;;;;;;9.18;4.20;;;;;;;20.52;56.10;99455.09;5048573;28;20496;-74
2022/07/05 05:14:46;;;;;;;14.68;4.60;;;;;;;20.59;56.17;99459.97;5049011;28;20021;-73
2022/07/05 05:17:12;;;;;;;9.40;4.53;;;;;;;20.93;55.09;99462.44;5049102;28;20037;-74
2022/07/05 05:19:37;;;;;;;15.65;4.50;;;;;;;21.09;54.46;99470.53;5050299;28;20116;-73
2022/07/05 05:22:03;;;;;;;7.90;4.95;;;;;;;21.23;54.32;99466.06;5051523;28;20100;-75
2022/07/05 05:24:28;;;;;;;11.32;4.47;;;;;;;21.35;54.02;99464.84;5046299;28;20405;-74
2022/07/05 05:26:54;;;;;;;11.32;4.80;;;;;;;21.20;53.96;99464.03;5047069;28;20032;-74
2022/07/05 05:29:20;;;;;;;11.18;4.28;;;;;;;21.49;54.37;99464.00;5043385;28;20121;-74
2022/07/05 05:31:46;;;;;;;14.73;4.82;;;;;;;21.82;53.46;99439.94;5050884;28;20475;-73
2022/07/05 05:34:12;;;;;;;10.07;4.72;;;;;;;22.18;52.48;99461.72;5049164;28;20086;-74
2022/07/05 05:36:37;;;;;;;9.35;5.35;;;;;;;22.28;51.71;99454.34;5051350;28;20024;-73
2022/07/05 05:39:03;;;;;;;4.95;4.43;;;;;;;22.32;50.53;99462.84;5045481;28;20025;-74
2022/07/05 05:41:28;;;;;;;13.88;4.13;;;;;;;22.50;51.01;99468.47;5062564;28;20123;-74
2022/07/05 05:43:54;;;;;;;10.25;4.38;;;;;;;22.55;50.78;99465.19;5049012;28;20503;-73
2022/07/05 05:46:19;;;;;;;8.02;3.88;;;;;;;22.81;49.51;99466.66;5050343;28;20029;-78
2022/07/05 05:48:45;;;;;;;14.23;4.63;;;;;;;23.17;48.91;99459.81;5043940;28;20095;-74
2022/07/05 05:51:10;;;;;;;6.47;4.00;;;;;;;23.22;48.21;99452.84;5039643;28;20411;-74
2022/07/05 05:53:35;;;;;;;5.78;4.35;;;;;;;23.22;47.90;99432.88;5046597;28;20030;-76
2022/07/05 05:56:01;;;;;;;13.55;3.90;;;;;;;23.47;46.70;99460.38;5047899;28;20025;-76
2022/07/05 05:58:26;;;;;;;5.70;4.25;;;;;;;23.58;46.76;99455.34;5047869;28;20036;-77
2022/07/05 06:00:53;;;;;;;6.50;4.25;;;;;;;23.92;45.55;99463.09;5048555;28;20143;-74
2022/07/05 06:03:23;;;;;;;4.22;3.83;;;;;;;24.21;44.94;99462.75;5036785;28;20032;-73
2022/07/05 06:05:49;;;;;;;10.23;4.13;;;;;;;24.57;44.74;99461.44;5037302;28;20103;-72
2022/07/05 06:08:15;;;;;;;5.63;4.03;;;;;;;24.57;43.65;99460.63;5045602;28;20120;-74
2022/07/05 06:10:42;;;;;;;9.80;5.28;;;;;;;24.78;43.52;99460.31;5049928;28;20053;-73
2022/07/05 06:13:10;;;;;;;6.70;4.30;;;;;;;24.86;42.22;99469.56;5048580;28;20033;-76
2022/07/05 06:15:37;;;;;;;10.38;4.28;;;;;;;25.07;43.49;99456.16;5048484;28;20086;-78
2022/07/05 06:18:02;;;;;;;12.15;4.25;;;;;;;25.21;42.22;99469.38;5049499;28;20146;-76
2022/07/05 06:20:31;;;;;;;10.45;4.80;;;;;;;25.07;42.31;99461.88;5048333;28;20021;-76
2022/07/05 06:22:57;;;;;;;9.82;4.82;;;;;;;25.46;42.95;99462.41;5049273;28;20152;-84
2022/07/05 06:25:23;;;;;;;10.65;3.90;;;;;;;25.61;41.88;99443.75;5051015;28;20036;-80
2022/07/05 06:27:55;;;;;;;8.05;4.25;;;;;;;25.24;42.01;99452.16;5048988;28;20045;-76
2022/07/05 06:30:22;;;;;;;14.98;4.75;;;;;;;25.69;42.23;99457.91;5046558;28;20064;-75
2022/07/05 06:32:49;;;;;;;7.47;4.35;;;;;;;25.82;41.74;99444.53;5048966;28;20494;-76
2022/07/05 06:35:15;;;;;;;34.90;9.48;;;;;;;25.92;41.90;99437.78;5049166;28;20115;-76
2022/07/05 06:37:44;;;;;;;14.13;4.53;;;;;;;26.12;41.25;99448.41;5050181;28;20051;-76
2022/07/05 06:40:17;;;;;;;8.60;4.57;;;;;;;26.24;41.23;99440.41;5053852;28;20017;-76
2022/07/05 06:42:43;;;;;;;14.93;6.50;;;;;;;26.14;40.58;99437.31;5050978;28;20436;-80
2022/07/05 06:45:09;;;;;;;6.45;4.22;;;;;;;26.27;39.93;99430.94;5047587;28;20075;-84
2022/07/05 06:47:35;;;;;;;5.18;3.47;;;;;;;26.19;38.11;99431.09;5047294;28;20447;-84
2022/07/05 06:50:04;;;;;;;27.35;4.20;;;;;;;26.27;37.46;99437.47;5047558;28;20029;-85
2022/07/05 06:52:32;;;;;;;12.23;4.20;;;;;;;26.17;38.90;99436.41;5048377;28;20057;-85
2022/07/05 06:54:58;;;;;;;7.65;4.25;;;;;;;26.18;39.19;99431.50;5048241;28;20087;-84
2022/07/05 06:57:24;;;;;;;17.63;7.95;;;;;;;26.36;37.42;99431.13;5049332;28;20044;-82
2022/07/05 06:59:52;;;;;;;17.75;5.47;;;;;;;26.39;36.84;99421.63;5045398;28;20029;-83
2022/07/05 07:02:19;;;;;;;12.23;4.10;;;;;;;26.53;36.63;99425.41;5047281;28;20582;-82
2022/07/05 07:04:44;;;;;;;5.35;3.85;;;;;;;26.39;37.34;99407.28;5068485;28;20023;-83
2022/07/05 07:10:01;;;;;;;10.77;3.85;;;;;;;26.82;36.27;99424.72;5051441;28;20036;-85
2022/07/05 07:12:29;;;;;;;12.63;5.78;;;;;;;26.96;35.73;99418.63;5049484;28;20159;-84
2022/07/05 07:14:55;;;;;;;11.90;3.75;;;;;;;26.81;35.69;99423.09;5052317;28;20133;-84
2022/07/05 07:17:20;;;;;;;11.60;3.92;;;;;;;27.09;36.50;99412.97;5053017;28;20044;-84
2022/07/05 07:19:46;;;;;;;11.07;3.78;;;;;;;26.40;36.21;99419.59;5054641;28;20510;-84
2022/07/05 07:22:11;;;;;;;6.80;3.47;;;;;;;26.63;36.09;99415.75;5053165;28;20494;-83
2022/07/05 07:24:37;;;;;;;11.77;3.97;;;;;;;27.10;37.46;99420.34;5063167;28;20027;-84
2022/07/05 07:27:02;;;;;;;4.05;3.10;;;;;;;27.32;36.11;99403.31;5073895;28;20459;-84
2022/07/05 07:29:29;;;;;;;30.13;6.00;;;;;;;27.70;36.10;99418.31;5069356;28;20043;-84
2022/07/05 07:31:56;;;;;;;10.82;4.30;;;;;;;27.79;35.94;99414.75;5074477;28;20027;-85
2022/07/05 07:34:21;;;;;;;8.80;4.38;;;;;;;27.92;35.57;99406.19;5072723;28;20017;-85
2022/07/05 07:36:47;;;;;;;17.83;4.57;;;;;;;27.85;34.30;99416.63;5054842;28;20098;-84
2022/07/05 07:39:13;;;;;;;7.72;3.40;;;;;;;27.91;32.67;99396.75;5052536;28;20091;-85
2022/07/05 07:41:39;;;;;;;6.22;4.03;;;;;;;27.98;33.33;99407.22;5053300;28;20438;-78
2022/07/05 07:44:04;;;;;;;7.57;4.05;;;;;;;27.04;33.97;99416.38;5055171;28;20057;-84
2022/07/05 07:46:30;;;;;;;12.63;3.33;;;;;;;27.22;32.91;99415.91;5055619;28;20024;-82
2022/07/05 07:48:55;;;;;;;6.68;4.13;;;;;;;27.21;33.32;99402.81;5053055;28;20467;-79
2022/07/05 07:51:21;;;;;;;10.52;6.00;;;;;;;27.52;32.68;99416.75;5052313;28;20438;-80
2022/07/05 07:53:48;;;;;;;13.43;5.20;;;;;;;27.68;32.13;99407.25;5054329;28;20513;-85
2022/07/05 07:56:13;;;;;;;9.20;4.10;;;;;;;27.79;32.65;99409.00;5053137;28;20028;-81
2022/07/05 07:58:39;;;;;;;9.68;4.32;;;;;;;27.74;32.37;99410.38;5052732;28;20051;-85
2022/07/05 08:01:10;;;;;;;13.32;5.35;;;;;;;27.92;31.84;99406.19;5052045;28;20052;-75
2022/07/05 08:03:39;;;;;;;7.13;4.20;;;;;;;28.11;31.60;99402.28;5053332;28;20025;-77
2022/07/05 08:06:05;;;;;;;12.95;4.47;;;;;;;28.12;32.11;99409.66;5052105;28;20494;-77
2022/07/05 08:08:31;;;;;;;11.02;3.90;;;;;;;28.27;31.22;99415.00;5051142;28;20059;-79
2022/07/05 08:10:58;;;;;;;4.25;3.30;;;;;;;28.22;29.07;99404.06;5053581;28;20189;-79
2022/07/05 08:13:23;;;;;;;4.88;3.58;;;;;;;28.59;29.25;99416.00;5047534;28;20029;-79
2022/07/05 08:15:49;;;;;;;9.13;3.50;;;;;;;28.54;29.43;99407.97;5048982;28;20416;-79
2022/07/05 08:23:42;;;;;;;4.72;3.40;;;;;;;29.45;29.59;99413.56;5053743;28;20032;-79
2022/07/05 08:26:07;;;;;;;13.82;4.43;;;;;;;29.61;29.91;99404.72;5050679;28;20025;-79
2022/07/05 08:28:33;;;;;;;60.53;11.02;;;;;;;29.78;30.78;99401.66;5052319;28;20044;-79
2022/07/05 08:30:58;;;;;;;38.67;8.00;;;;;;;29.90;30.64;99406.53;5051183;28;20106;-79
2022/07/05 08:33:24;;;;;;;5.82;3.60;;;;;;;29.93;30.36;99390.38;5053612;28;20024;-80
2022/07/05 08:35:49;;;;;;;9.20;4.32;;;;;;;29.96;29.46;99398.06;5050589;28;20017;-79
2022/07/05 08:38:15;;;;;;;8.07;3.47;;;;;;;29.80;29.33;99397.00;5041222;28;20031;-79
2022/07/05 08:40:45;;;;;;;5.18;3.97;;;;;;;29.76;30.06;99402.09;5057868;28;20024;-79
2022/07/05 08:43:15;;;;;;;4.72;3.25;;;;;;;29.58;29.33;99385.50;5071349;28;20483;-78
2022/07/05 08:45:43;;;;;;;11.05;4.45;;;;;;;29.73;29.88;99390.72;5072788;28;20059;-79
2022/07/05 08:48:09;;;;;;;14.63;4.07;;;;;;;29.75;30.22;99388.97;5048898;28;20049;-79
2022/07/05 08:50:39;;;;;;;37.35;9.23;;;;;;;29.83;29.75;99390.31;5050994;28;20037;-79
2022/07/05 08:53:05;;;;;;;68.78;13.40;;;;;;;30.09;28.46;99380.69;5049524;28;20025;-75
2022/07/05 08:55:32;;;;;;;10.07;3.05;;;;;;;30.12;28.21;99382.66;5051056;28;20102;-75
2022/07/05 08:57:57;;;;;;;11.20;3.08;;;;;;;30.14;27.29;99379.28;5050427;28;20057;-75
2022/07/05 09:00:23;;;;;;;3.13;2.10;;;;;;;29.83;27.69;99372.22;5050650;28;20080;-80
2022/07/05 09:02:50;;;;;;;4.70;2.15;;;;;;;29.86;27.91;99382.78;5049305;28;20029;-81
2022/07/05 09:05:20;;;;;;;10.68;2.88;;;;;;;29.89;26.70;99386.81;5033253;28;20468;-78
2022/07/05 09:07:54;;;;;;;;;;;;;;;30.21;25.90;99382.69;5050689;28;20415;-78
2022/07/05 09:10:22;;;;;;;4.22;2.38;;;;;;;30.29;23.84;99377.44;5048438;28;19917;-80
2022/07/05 09:12:47;;;;;;;3.97;2.13;;;;;;;30.22;22.92;99377.72;5044436;28;20014;-82
2022/07/05 09:15:13;;;;;;;4.78;2.60;;;;;;;30.55;23.87;99377.22;5046713;28;20082;-82
2022/07/05 09:17:43;;;;;;;34.10;4.88;;;;;;;30.84;25.89;99367.34;5050033;28;20036;-85
2022/07/05 09:20:14;;;;;;;8.27;3.30;;;;;;;31.05;25.90;99382.94;5049334;28;20027;-85
2022/07/05 09:22:54;;;;;;;7.38;2.80;;;;;;;31.18;25.73;99377.03;5043373;28;20013;-81
2022/07/05 09:25:21;;;;;;;;;;;;;;;31.38;26.35;99370.00;5038957;28;20029;-82
2022/07/05 09:27:50;;;;;;;6.13;3.08;;;;;;;31.38;25.88;99370.00;5051811;28;19923;-79
2022/07/05 09:30:30;;;;;;;6.63;3.08;;;;;;;31.54;27.23;99359.38;5045001;28;20039;-79
2022/07/05 09:33:04;;;;;;;;;;;;;;;31.70;26.25;99350.34;5051264;28;20044;-77
2022/07/05 09:35:32;;;;;;;3.97;2.58;;;;;;;31.73;25.44;99354.38;5053728;28;20315;-78
2022/07/05 09:37:57;;;;;;;7.80;2.85;;;;;;;31.91;24.69;99345.66;5050446;28;20028;-83
2022/07/05 09:40:23;;;;;;;7.80;2.72;;;;;;;31.99;24.56;99346.13;5048265;28;20036;-78
2022/07/05 09:42:48;;;;;;;14.65;2.85;;;;;;;32.08;25.94;99346.06;5049673;28;20051;-78
2022/07/05 09:45:23;;;;;;;9.32;3.05;;;;;;;32.22;24.67;99335.13;5052054;28;20017;-80
2022/07/05 09:47:57;;;;;;;13.38;2.85;;;;;;;32.40;24.66;99337.16;5050870;28;20043;-84
2022/07/05 09:50:33;;;;;;;7.35;2.33;;;;;;;32.45;24.89;99336.47;5048621;28;20032;-76
2022/07/05 09:52:58;;;;;;;5.43;2.30;;;;;;;32.58;25.06;99341.22;5046536;28;20140;-76
2022/07/05 09:55:24;;;;;;;6.00;2.55;;;;;;;32.50;25.50;99329.22;5039517;28;20084;-78
2022/07/05 09:57:53;;;;;;;10.82;3.50;;;;;;;32.69;26.88;99338.56;5044295;28;20022;-79
2022/07/05 10:00:23;;;;;;;5.00;2.55;;;;;;;32.94;25.92;99318.31;5034845;28;20029;-79
2022/07/05 10:02:58;;;;;;;3.67;2.70;;;;;;;33.02;25.18;99320.34;5050310;28;20028;-78
2022/07/05 10:05:25;;;;;;;7.72;3.05;;;;;;;33.18;25.35;99313.31;5045237;28;20066;-79
2022/07/05 10:07:59;;;;;;;6.85;2.38;;;;;;;33.31;25.23;99320.91;5050192;28;20045;-78
2022/07/05 10:10:33;;;;;;;4.00;2.40;;;;;;;33.45;24.95;99314.34;5050869;28;20029;-80
2022/07/05 10:13:01;;;;;;;5.20;2.33;;;;;;;33.53;24.35;99313.94;5045813;28;20037;-78
2022/07/05 10:15:32;;;;;;;7.55;2.60;;;;;;;33.59;24.32;99320.66;5050607;28;20029;-78
2022/07/05 10:18:03;;;;;;;7.15;3.22;;;;;;;33.70;24.94;99317.97;5046557;28;20020;-78
2022/07/05 10:20:34;;;;;;;7.43;2.70;;;;;;;33.78;24.35;99315.44;5041382;28;20036;-76
2022/07/05 10:23:03;;;;;;;7.43;2.58;;;;;;;33.88;24.76;99290.03;5051749;28;20087;-82
2022/07/05 10:25:30;;;;;;;6.32;2.90;;;;;;;34.05;24.43;99293.22;5052503;28;20025;-83
2022/07/05 10:27:58;;;;;;;5.85;2.80;;;;;;;34.05;24.15;99299.03;5031461;28;20523;-81
2022/07/05 10:30:24;;;;;;;14.02;3.17;;;;;;;34.10;24.75;99303.31;5041132;28;20039;-80
2022/07/05 10:32:50;;;;;;;7.97;3.03;;;;;;;34.11;23.95;99299.13;5044533;28;20524;-79
2022/07/05 10:35:17;;;;;;;10.93;2.83;;;;;;;34.28;24.32;99294.38;5047276;28;20112;-82
2022/07/05 10:37:43;;;;;;;7.22;2.38;;;;;;;34.43;24.00;99285.59;5050009;28;20132;-83
2022/07/05 10:40:10;;;;;;;3.83;3.03;;;;;;;34.53;24.42;99295.03;5049475;28;20048;-80
2022/07/05 10:42:50;;;;;;;16.33;3.35;;;;;;;34.33;25.41;99292.06;5051129;28;20029;-83
2022/07/05 10:45:26;;;;;;;7.30;3.10;;;;;;;34.30;24.09;99285.16;5046559;28;20099;-77
2022/07/05 10:48:14;;;;;;;4.22;2.67;;;;;;;34.40;23.64;99291.66;5053221;28;20035;-79
2022/07/05 10:50:51;;;;;;;5.30;2.47;;;;;;;34.53;23.95;99286.31;5045631;28;20048;-80
2022/07/05 10:53:36;;;;;;;8.35;2.92;;;;;;;34.68;24.19;99289.13;5044225;28;20029;-79
2022/07/05 10:56:05;;;;;;;5.78;3.10;;;;;;;34.77;24.12;99282.41;5052999;28;20479;-80
2022/07/05 10:58:38;;;;;;;7.95;4.05;;;;;;;34.96;22.44;99282.88;5051214;28;20468;-79
2022/07/05 11:01:15;;;;;;;14.90;3.35;;;;;;;34.81;23.60;99280.06;5049096;28;20025;-79
2022/07/05 11:03:42;;;;;;;15.13;3.55;;;;;;;35.03;23.50;99278.75;5040661;28;20029;-78
2022/07/05 11:06:18;;;;;;;7.63;3.05;;;;;;;34.77;23.55;99267.88;5052545;28;20119;-79
2022/07/05 11:08:59;;;;;;;4.25;2.97;;;;;;;34.85;23.34;99269.00;5052698;28;20025;-79
2022/07/05 11:11:28;;;;;;;11.85;2.78;;;;;;;34.93;22.71;99268.59;5068365;28;20024;-79
2022/07/05 11:13:54;;;;;;;5.90;3.45;;;;;;;34.95;22.06;99266.78;5053133;28;20112;-78
2022/07/05 11:16:38;;;;;;;7.63;3.72;;;;;;;34.83;23.38;99265.03;5057091;28;20040;-77
2022/07/05 11:19:11;;;;;;;7.43;3.65;;;;;;;34.93;22.67;99256.97;5047717;28;20044;-77
2022/07/05 11:21:39;;;;;;;10.80;4.13;;;;;;;35.15;23.16;99253.53;5044341;28;20045;-77
2022/07/05 11:24:22;;;;;;;7.80;3.70;;;;;;;35.26;23.06;99244.13;5051591;28;20020;-77
2022/07/05 11:26:49;;;;;;;8.45;3.25;;;;;;;35.21;23.19;99241.97;5044321;28;20499;-78
2022/07/05 11:29:43;;;;;;;6.32;3.67;;;;;;;35.10;22.42;99239.75;5051169;28;20404;-75
2022/07/05 11:32:19;;;;;;;6.85;3.95;;;;;;;35.27;23.39;99239.91;5045347;28;20021;-75
2022/07/05 11:34:47;;;;;;;11.93;4.13;;;;;;;35.25;23.22;99228.03;5042661;28;20020;-75
2022/07/05 11:37:24;;;;;;;10.60;3.88;;;;;;;35.09;23.21;99235.25;5047455;28;20511;-75